sensor_id;sensor_type;location;lat;lon;timestamp;pressure;altitude;pressure_sealevel;temperature;humidity
15568;BME280;7885;42.596;23.044;2023-04-15T00:01:49;92246.38;;;8.42;92.09
15568;BME280;7885;42.596;23.044;2023-04-15T00:04:17;92235.53;;;8.42;91.95
15568;BME280;7885;42.596;23.044;2023-04-15T00:06:49;92223.16;;;8.41;92.15
15568;BME280;7885;42.596;23.044;2023-04-15T00:09:17;92225.81;;;8.48;91.52
15568;BME280;7885;42.596;23.044;2023-04-15T00:11:44;92210.03;;;8.36;91.47
15568;BME280;7885;42.596;23.044;2023-04-15T00:14:11;92219.28;;;8.42;91.59
15568;BME280;7885;42.596;23.044;2023-04-15T00:16:38;92201.13;;;8.32;92.43
15568;BME280;7885;42.596;23.044;2023-04-15T00:19:05;92214.66;;;8.39;93.59
15568;BME280;7885;42.596;23.044;2023-04-15T00:21:33;92213.84;;;8.42;94.23
15568;BME280;7885;42.596;23.044;2023-04-15T00:24:00;92213.09;;;8.38;94.66
15568;BME280;7885;42.596;23.044;2023-04-15T00:26:26;92224.38;;;8.33;94.70
15568;BME280;7885;42.596;23.044;2023-04-15T00:28:53;92196.53;;;8.22;94.85
15568;BME280;7885;42.596;23.044;2023-04-15T00:31:20;92215.09;;;8.27;94.60
15568;BME280;7885;42.596;23.044;2023-04-15T00:33:47;92218.56;;;8.31;93.16
15568;BME280;7885;42.596;23.044;2023-04-15T00:36:14;92198.44;;;8.25;93.41
15568;BME280;7885;42.596;23.044;2023-04-15T00:38:42;92217.41;;;8.25;93.92
15568;BME280;7885;42.596;23.044;2023-04-15T00:41:10;92215.84;;;8.28;93.33
15568;BME280;7885;42.596;23.044;2023-04-15T00:43:37;92218.56;;;8.24;93.64
15568;BME280;7885;42.596;23.044;2023-04-15T00:46:04;92199.31;;;8.08;93.57
15568;BME280;7885;42.596;23.044;2023-04-15T00:48:31;92219.75;;;8.23;93.75
15568;BME280;7885;42.596;23.044;2023-04-15T00:50:58;92218.63;;;8.17;93.49
15568;BME280;7885;42.596;23.044;2023-04-15T00:53:25;92210.13;;;8.11;92.72
15568;BME280;7885;42.596;23.044;2023-04-15T00:55:53;92209.78;;;8.06;94.36
15568;BME280;7885;42.596;23.044;2023-04-15T00:58:21;92212.09;;;8.04;94.46
15568;BME280;7885;42.596;23.044;2023-04-15T01:00:48;92214.06;;;8.00;95.20
15568;BME280;7885;42.596;23.044;2023-04-15T01:03:18;92218.72;;;8.03;95.91
15568;BME280;7885;42.596;23.044;2023-04-15T01:05:45;92222.59;;;7.98;96.49
15568;BME280;7885;42.596;23.044;2023-04-15T01:08:12;92200.59;;;7.86;96.56
15568;BME280;7885;42.596;23.044;2023-04-15T01:10:39;92215.28;;;7.92;95.49
15568;BME280;7885;42.596;23.044;2023-04-15T01:13:07;92209.50;;;7.83;95.47
15568;BME280;7885;42.596;23.044;2023-04-15T01:15:35;92219.56;;;7.86;96.19
15568;BME280;7885;42.596;23.044;2023-04-15T01:18:02;92228.06;;;7.88;96.39
15568;BME280;7885;42.596;23.044;2023-04-15T01:20:29;92220.34;;;7.83;96.15
15568;BME280;7885;42.596;23.044;2023-04-15T01:22:56;92216.88;;;7.82;95.81
15568;BME280;7885;42.596;23.044;2023-04-15T01:25:30;92204.94;;;7.66;96.08
15568;BME280;7885;42.596;23.044;2023-04-15T01:27:57;92212.66;;;7.71;96.15
15568;BME280;7885;42.596;23.044;2023-04-15T01:30:25;92213.44;;;7.71;96.10
15568;BME280;7885;42.596;23.044;2023-04-15T01:32:52;92205.31;;;7.68;95.78
15568;BME280;7885;42.596;23.044;2023-04-15T01:35:19;92172.53;;;7.51;96.06
15568;BME280;7885;42.596;23.044;2023-04-15T01:37:47;92201.81;;;7.74;95.10
15568;BME280;7885;42.596;23.044;2023-04-15T01:40:13;92219.59;;;7.82;94.12
15568;BME280;7885;42.596;23.044;2023-04-15T01:42:42;92222.69;;;7.77;92.67
15568;BME280;7885;42.596;23.044;2023-04-15T01:45:09;92219.22;;;7.73;94.56
15568;BME280;7885;42.596;23.044;2023-04-15T01:47:36;92204.59;;;7.56;95.88
15568;BME280;7885;42.596;23.044;2023-04-15T01:50:04;92213.06;;;7.66;97.07
15568;BME280;7885;42.596;23.044;2023-04-15T01:52:31;92217.75;;;7.61;97.38
15568;BME280;7885;42.596;23.044;2023-04-15T01:54:58;92211.97;;;7.45;96.90
15568;BME280;7885;42.596;23.044;2023-04-15T01:57:25;92208.50;;;7.38;98.40
15568;BME280;7885;42.596;23.044;2023-04-15T01:59:53;92222.78;;;7.45;99.26
15568;BME280;7885;42.596;23.044;2023-04-15T02:02:20;92231.31;;;7.44;98.05
15568;BME280;7885;42.596;23.044;2023-04-15T02:04:47;92233.66;;;7.35;96.80
15568;BME280;7885;42.596;23.044;2023-04-15T02:07:14;92233.66;;;7.31;98.60
15568;BME280;7885;42.596;23.044;2023-04-15T02:09:41;92242.53;;;7.35;98.54
15568;BME280;7885;42.596;23.044;2023-04-15T02:12:10;92246.81;;;7.33;99.35
15568;BME280;7885;42.596;23.044;2023-04-15T02:14:37;92249.09;;;7.38;99.53
15568;BME280;7885;42.596;23.044;2023-04-15T02:17:05;92237.53;;;7.37;99.96
15568;BME280;7885;42.596;23.044;2023-04-15T02:19:33;92238.31;;;7.34;99.79
15568;BME280;7885;42.596;23.044;2023-04-15T02:21:59;92241.03;;;7.34;98.96
15568;BME280;7885;42.596;23.044;2023-04-15T02:24:27;92238.34;;;7.24;97.26
15568;BME280;7885;42.596;23.044;2023-04-15T02:26:53;92238.34;;;7.17;95.94
15568;BME280;7885;42.596;23.044;2023-04-15T02:29:20;92235.25;;;7.04;96.78
15568;BME280;7885;42.596;23.044;2023-04-15T02:31:48;92243.78;;;6.88;97.48
15568;BME280;7885;42.596;23.044;2023-04-15T02:34:16;92249.19;;;6.92;97.47
15568;BME280;7885;42.596;23.044;2023-04-15T02:36:43;92228.34;;;6.75;96.11
15568;BME280;7885;42.596;23.044;2023-04-15T02:39:11;92239.16;;;6.68;96.66
15568;BME280;7885;42.596;23.044;2023-04-15T02:41:41;92232.19;;;6.52;95.86
15568;BME280;7885;42.596;23.044;2023-04-15T02:44:08;92239.13;;;6.39;96.95
15568;BME280;7885;42.596;23.044;2023-04-15T02:46:37;92227.53;;;6.39;97.93
15568;BME280;7885;42.596;23.044;2023-04-15T02:49:05;92229.88;;;6.40;98.69
15568;BME280;7885;42.596;23.044;2023-04-15T02:51:34;92227.53;;;6.35;97.88
15568;BME280;7885;42.596;23.044;2023-04-15T02:54:01;92230.22;;;6.35;96.37
15568;BME280;7885;42.596;23.044;2023-04-15T02:56:27;92236.81;;;6.31;94.81
15568;BME280;7885;42.596;23.044;2023-04-15T02:58:54;92222.88;;;6.18;93.58
15568;BME280;7885;42.596;23.044;2023-04-15T03:01:21;92226.34;;;6.19;94.96
15568;BME280;7885;42.596;23.044;2023-04-15T03:03:48;92228.66;;;6.13;96.54
15568;BME280;7885;42.596;23.044;2023-04-15T03:06:15;92237.19;;;6.29;96.67
15568;BME280;7885;42.596;23.044;2023-04-15T03:08:43;92248.00;;;6.29;97.32
15568;BME280;7885;42.596;23.044;2023-04-15T03:11:10;92251.06;;;6.31;97.77
15568;BME280;7885;42.596;23.044;2023-04-15T03:13:37;92235.25;;;6.26;98.55
15568;BME280;7885;42.596;23.044;2023-04-15T03:16:06;92258.44;;;6.34;97.75
15568;BME280;7885;42.596;23.044;2023-04-15T03:18:33;92268.06;;;6.32;100.00
15568;BME280;7885;42.596;23.044;2023-04-15T03:21:00;92280.78;;;6.31;100.00
15568;BME280;7885;42.596;23.044;2023-04-15T03:23:27;92282.75;;;6.34;100.00
15568;BME280;7885;42.596;23.044;2023-04-15T03:25:55;92259.16;;;6.14;100.00
15568;BME280;7885;42.596;23.044;2023-04-15T03:28:22;92281.56;;;6.32;100.00
15568;BME280;7885;42.596;23.044;2023-04-15T03:30:49;92283.88;;;6.19;100.00
15568;BME280;7885;42.596;23.044;2023-04-15T03:33:16;92280.78;;;6.14;100.00
15568;BME280;7885;42.596;23.044;2023-04-15T03:35:42;92285.38;;;6.09;100.00
15568;BME280;7885;42.596;23.044;2023-04-15T03:38:09;92279.91;;;5.92;100.00
15568;BME280;7885;42.596;23.044;2023-04-15T03:40:37;92294.63;;;6.05;100.00
15568;BME280;7885;42.596;23.044;2023-04-15T03:43:05;92286.88;;;6.03;100.00
15568;BME280;7885;42.596;23.044;2023-04-15T03:45:32;92300.06;;;6.12;100.00
15568;BME280;7885;42.596;23.044;2023-04-15T03:47:59;92293.06;;;6.07;100.00
15568;BME280;7885;42.596;23.044;2023-04-15T03:50:25;92301.59;;;6.13;100.00
15568;BME280;7885;42.596;23.044;2023-04-15T03:52:52;92287.66;;;6.04;100.00
15568;BME280;7885;42.596;23.044;2023-04-15T03:55:19;92291.94;;;6.08;99.82
15568;BME280;7885;42.596;23.044;2023-04-15T03:57:46;92289.97;;;5.98;98.64
15568;BME280;7885;42.596;23.044;2023-04-15T04:00:14;92297.69;;;5.93;97.73
15568;BME280;7885;42.596;23.044;2023-04-15T04:02:41;92293.00;;;5.90;97.38
15568;BME280;7885;42.596;23.044;2023-04-15T04:05:08;92305.78;;;5.93;96.25
15568;BME280;7885;42.596;23.044;2023-04-15T04:07:35;92299.13;;;5.80;97.06
15568;BME280;7885;42.596;23.044;2023-04-15T04:10:01;92303.00;;;5.79;96.79
15568;BME280;7885;42.596;23.044;2023-04-15T04:12:29;92295.22;;;5.70;96.33
15568;BME280;7885;42.596;23.044;2023-04-15T04:14:55;92308.38;;;5.75;96.76
15568;BME280;7885;42.596;23.044;2023-04-15T04:17:24;92297.13;;;5.70;97.30
15568;BME280;7885;42.596;23.044;2023-04-15T04:19:50;92316.09;;;5.80;98.05
15568;BME280;7885;42.596;23.044;2023-04-15T04:22:21;92305.28;;;5.77;97.95
15568;BME280;7885;42.596;23.044;2023-04-15T04:24:48;92305.31;;;5.84;98.17
15568;BME280;7885;42.596;23.044;2023-04-15T04:27:15;92313.88;;;5.93;98.67
15568;BME280;7885;42.596;23.044;2023-04-15T04:29:41;92314.25;;;5.95;98.13
15568;BME280;7885;42.596;23.044;2023-04-15T04:32:08;92321.50;;;5.84;99.12
15568;BME280;7885;42.596;23.044;2023-04-15T04:34:37;92310.31;;;5.82;99.52
15568;BME280;7885;42.596;23.044;2023-04-15T04:37:04;92312.22;;;5.78;100.00
15568;BME280;7885;42.596;23.044;2023-04-15T04:39:31;92314.59;;;5.86;100.00
15568;BME280;7885;42.596;23.044;2023-04-15T04:41:58;92312.31;;;5.88;100.00
15568;BME280;7885;42.596;23.044;2023-04-15T04:44:25;92319.69;;;6.02;99.77
15568;BME280;7885;42.596;23.044;2023-04-15T04:46:52;92321.66;;;6.12;99.95
15568;BME280;7885;42.596;23.044;2023-04-15T04:49:19;92324.00;;;6.24;100.00
15568;BME280;7885;42.596;23.044;2023-04-15T04:51:47;92300.84;;;6.16;99.43
15568;BME280;7885;42.596;23.044;2023-04-15T04:54:14;92330.66;;;6.44;99.54
15568;BME280;7885;42.596;23.044;2023-04-15T04:56:41;92331.03;;;6.53;99.00
15568;BME280;7885;42.596;23.044;2023-04-15T04:59:08;92325.25;;;6.58;99.00
15568;BME280;7885;42.596;23.044;2023-04-15T05:01:35;92348.09;;;6.79;98.56
15568;BME280;7885;42.596;23.044;2023-04-15T05:04:02;92343.84;;;6.88;97.66
15568;BME280;7885;42.596;23.044;2023-04-15T05:06:29;92341.94;;;7.03;97.79
15568;BME280;7885;42.596;23.044;2023-04-15T05:08:58;92340.38;;;7.09;96.85
15568;BME280;7885;42.596;23.044;2023-04-15T05:11:25;92349.28;;;7.27;96.14
15568;BME280;7885;42.596;23.044;2023-04-15T05:13:52;92348.09;;;7.35;94.71
15568;BME280;7885;42.596;23.044;2023-04-15T05:16:19;92342.69;;;7.35;94.19
15568;BME280;7885;42.596;23.044;2023-04-15T05:18:46;92344.25;;;7.43;94.51
15568;BME280;7885;42.596;23.044;2023-04-15T05:21:13;92350.41;;;7.61;94.81
15568;BME280;7885;42.596;23.044;2023-04-15T05:23:39;92358.53;;;7.69;94.79
15568;BME280;7885;42.596;23.044;2023-04-15T05:26:08;92338.38;;;7.77;93.91
15568;BME280;7885;42.596;23.044;2023-04-15T05:28:34;92334.09;;;7.83;93.76
15568;BME280;7885;42.596;23.044;2023-04-15T05:31:01;92327.94;;;7.86;94.16
15568;BME280;7885;42.596;23.044;2023-04-15T05:33:28;92315.91;;;7.83;94.76
15568;BME280;7885;42.596;23.044;2023-04-15T05:35:55;92357.25;;;8.12;94.42
15568;BME280;7885;42.596;23.044;2023-04-15T05:38:22;92331.34;;;8.04;94.05
15568;BME280;7885;42.596;23.044;2023-04-15T05:40:49;92357.22;;;8.33;94.34
15568;BME280;7885;42.596;23.044;2023-04-15T05:43:17;92361.81;;;8.40;93.94
15568;BME280;7885;42.596;23.044;2023-04-15T05:45:44;92364.09;;;8.48;92.14
15568;BME280;7885;42.596;23.044;2023-04-15T05:48:11;92355.97;;;8.48;91.31
15568;BME280;7885;42.596;23.044;2023-04-15T05:50:39;92366.00;;;8.58;91.98
15568;BME280;7885;42.596;23.044;2023-04-15T05:53:06;92365.22;;;8.65;91.80
15568;BME280;7885;42.596;23.044;2023-04-15T05:55:33;92363.19;;;8.76;91.86
15568;BME280;7885;42.596;23.044;2023-04-15T05:58:00;92372.50;;;8.75;91.41
15568;BME280;7885;42.596;23.044;2023-04-15T06:00:29;92369.34;;;8.84;92.00
15568;BME280;7885;42.596;23.044;2023-04-15T06:02:56;92374.72;;;8.94;91.65
15568;BME280;7885;42.596;23.044;2023-04-15T06:05:23;92378.94;;;9.06;91.77
15568;BME280;7885;42.596;23.044;2023-04-15T06:07:50;92371.53;;;9.10;91.54
15568;BME280;7885;42.596;23.044;2023-04-15T06:10:17;92380.34;;;9.21;89.85
15568;BME280;7885;42.596;23.044;2023-04-15T06:12:43;92393.84;;;9.35;87.81
15568;BME280;7885;42.596;23.044;2023-04-15T06:15:10;92399.22;;;9.42;85.90
15568;BME280;7885;42.596;23.044;2023-04-15T06:17:38;92399.91;;;9.53;85.76
15568;BME280;7885;42.596;23.044;2023-04-15T06:20:06;92411.41;;;9.72;82.70
15568;BME280;7885;42.596;23.044;2023-04-15T06:22:33;92412.84;;;9.83;81.43
15568;BME280;7885;42.596;23.044;2023-04-15T06:25:00;92418.13;;;10.01;83.09
15568;BME280;7885;42.596;23.044;2023-04-15T06:27:26;92415.06;;;9.99;78.46
15568;BME280;7885;42.596;23.044;2023-04-15T06:29:53;92426.69;;;10.03;77.23
15568;BME280;7885;42.596;23.044;2023-04-15T06:32:20;92436.66;;;10.20;77.97
15568;BME280;7885;42.596;23.044;2023-04-15T06:34:48;92425.41;;;10.11;79.14
15568;BME280;7885;42.596;23.044;2023-04-15T06:37:15;92447.44;;;10.31;75.06
15568;BME280;7885;42.596;23.044;2023-04-15T06:39:41;92439.72;;;10.22;73.23
15568;BME280;7885;42.596;23.044;2023-04-15T06:42:09;92445.03;;;10.36;75.48
15568;BME280;7885;42.596;23.044;2023-04-15T06:44:36;92448.47;;;10.40;73.76
15568;BME280;7885;42.596;23.044;2023-04-15T06:47:03;92434.53;;;10.35;72.79
15568;BME280;7885;42.596;23.044;2023-04-15T06:49:29;92439.44;;;10.50;72.23
15568;BME280;7885;42.596;23.044;2023-04-15T06:51:59;92411.16;;;10.44;75.54
15568;BME280;7885;42.596;23.044;2023-04-15T06:54:26;92430.00;;;10.58;73.30
15568;BME280;7885;42.596;23.044;2023-04-15T06:56:53;92412.50;;;10.59;75.07
15568;BME280;7885;42.596;23.044;2023-04-15T06:59:19;92410.69;;;10.49;72.45
15568;BME280;7885;42.596;23.044;2023-04-15T07:01:46;92417.94;;;10.59;71.43
15568;BME280;7885;42.596;23.044;2023-04-15T07:04:13;92431.63;;;10.52;71.39
15568;BME280;7885;42.596;23.044;2023-04-15T07:06:39;92414.56;;;10.48;72.87
15568;BME280;7885;42.596;23.044;2023-04-15T07:09:08;92431.97;;;10.58;72.35
15568;BME280;7885;42.596;23.044;2023-04-15T07:11:35;92414.50;;;10.55;70.99
15568;BME280;7885;42.596;23.044;2023-04-15T07:14:02;92436.91;;;10.67;68.56
15568;BME280;7885;42.596;23.044;2023-04-15T07:16:29;92435.97;;;10.80;68.93
15568;BME280;7885;42.596;23.044;2023-04-15T07:18:55;92439.00;;;10.89;67.15
15568;BME280;7885;42.596;23.044;2023-04-15T07:21:23;92438.88;;;10.96;67.59
15568;BME280;7885;42.596;23.044;2023-04-15T07:30:34;92442.81;;;11.52;66.09
15568;BME280;7885;42.596;23.044;2023-04-15T07:33:01;92427.41;;;11.65;67.46
15568;BME280;7885;42.596;23.044;2023-04-15T07:35:28;92447.88;;;11.81;65.38
15568;BME280;7885;42.596;23.044;2023-04-15T07:37:55;92455.59;;;11.86;62.30
15568;BME280;7885;42.596;23.044;2023-04-15T07:40:22;92447.44;;;12.09;62.00
15568;BME280;7885;42.596;23.044;2023-04-15T07:42:48;92447.06;;;12.30;61.95
15568;BME280;7885;42.596;23.044;2023-04-15T07:45:15;92455.38;;;12.23;62.58
15568;BME280;7885;42.596;23.044;2023-04-15T07:47:44;92457.28;;;12.26;61.73
15568;BME280;7885;42.596;23.044;2023-04-15T07:50:11;92428.94;;;12.20;62.87
15568;BME280;7885;42.596;23.044;2023-04-15T07:52:37;92464.84;;;12.38;63.55
15568;BME280;7885;42.596;23.044;2023-04-15T07:55:05;92468.78;;;12.37;59.73
15568;BME280;7885;42.596;23.044;2023-04-15T07:57:32;92485.16;;;12.37;59.26
15568;BME280;7885;42.596;23.044;2023-04-15T07:59:59;92457.50;;;12.35;56.70
15568;BME280;7885;42.596;23.044;2023-04-15T08:02:27;92472.75;;;12.76;60.50
15568;BME280;7885;42.596;23.044;2023-04-15T08:04:55;92469.28;;;12.95;55.60
15568;BME280;7885;42.596;23.044;2023-04-15T08:07:22;92492.72;;;13.15;55.93
15568;BME280;7885;42.596;23.044;2023-04-15T08:09:49;92485.03;;;12.87;53.99
15568;BME280;7885;42.596;23.044;2023-04-15T08:12:16;92473.28;;;12.47;53.16
15568;BME280;7885;42.596;23.044;2023-04-15T08:14:43;92480.06;;;12.82;53.25
15568;BME280;7885;42.596;23.044;2023-04-15T08:17:10;92486.88;;;13.13;53.11
15568;BME280;7885;42.596;23.044;2023-04-15T08:19:36;92477.19;;;13.48;54.16
15568;BME280;7885;42.596;23.044;2023-04-15T08:22:05;92469.25;;;14.22;51.97
15568;BME280;7885;42.596;23.044;2023-04-15T08:24:31;92464.06;;;14.44;49.26
15568;BME280;7885;42.596;23.044;2023-04-15T08:26:58;92445.88;;;15.52;47.19
15568;BME280;7885;42.596;23.044;2023-04-15T08:29:25;92443.97;;;16.50;46.00
15568;BME280;7885;42.596;23.044;2023-04-15T08:31:53;92439.97;;;17.54;41.46
15568;BME280;7885;42.596;23.044;2023-04-15T08:34:20;92430.63;;;18.13;39.85
15568;BME280;7885;42.596;23.044;2023-04-15T08:36:47;92440.81;;;17.95;40.21
15568;BME280;7885;42.596;23.044;2023-04-15T08:39:15;92427.59;;;19.24;37.48
15568;BME280;7885;42.596;23.044;2023-04-15T08:41:46;92430.16;;;20.33;34.65
15568;BME280;7885;42.596;23.044;2023-04-15T08:44:13;92417.00;;;19.68;36.79
15568;BME280;7885;42.596;23.044;2023-04-15T08:46:40;92455.56;;;20.04;36.50
15568;BME280;7885;42.596;23.044;2023-04-15T08:49:10;92404.19;;;19.98;35.42
15568;BME280;7885;42.596;23.044;2023-04-15T08:51:38;92427.59;;;19.60;35.60
15568;BME280;7885;42.596;23.044;2023-04-15T08:54:06;92426.41;;;17.91;38.52
15568;BME280;7885;42.596;23.044;2023-04-15T08:56:35;92433.38;;;18.62;36.20
15568;BME280;7885;42.596;23.044;2023-04-15T08:59:02;92436.66;;;18.30;36.37
15568;BME280;7885;42.596;23.044;2023-04-15T09:01:30;92427.75;;;19.57;35.80
15568;BME280;7885;42.596;23.044;2023-04-15T09:03:58;92432.66;;;19.53;33.44
15568;BME280;7885;42.596;23.044;2023-04-15T09:06:25;92405.19;;;18.58;34.20
15568;BME280;7885;42.596;23.044;2023-04-15T09:08:52;92424.09;;;19.42;32.45
15568;BME280;7885;42.596;23.044;2023-04-15T09:11:20;92398.03;;;19.94;32.25
15568;BME280;7885;42.596;23.044;2023-04-15T09:13:49;92426.84;;;20.77;31.14
15568;BME280;7885;42.596;23.044;2023-04-15T09:16:16;92414.19;;;21.08;29.40
15568;BME280;7885;42.596;23.044;2023-04-15T09:18:43;92418.09;;;19.52;30.42
15568;BME280;7885;42.596;23.044;2023-04-15T09:21:11;92414.84;;;18.54;32.05
15568;BME280;7885;42.596;23.044;2023-04-15T09:23:40;92429.47;;;18.42;34.52
15568;BME280;7885;42.596;23.044;2023-04-15T09:26:07;92426.50;;;18.18;33.66
15568;BME280;7885;42.596;23.044;2023-04-15T09:28:40;92411.03;;;18.11;33.09
15568;BME280;7885;42.596;23.044;2023-04-15T09:31:09;92419.66;;;19.26;31.51
15568;BME280;7885;42.596;23.044;2023-04-15T09:33:53;92433.31;;;17.95;31.66
15568;BME280;7885;42.596;23.044;2023-04-15T09:36:20;92414.22;;;17.48;34.03
15568;BME280;7885;42.596;23.044;2023-04-15T09:38:54;92407.16;;;18.00;36.82
15568;BME280;7885;42.596;23.044;2023-04-15T09:41:21;92408.78;;;18.28;33.30
15568;BME280;7885;42.596;23.044;2023-04-15T09:43:48;92436.53;;;18.43;33.16
15568;BME280;7885;42.596;23.044;2023-04-15T09:46:16;92423.59;;;18.12;33.63
15568;BME280;7885;42.596;23.044;2023-04-15T09:48:43;92446.69;;;16.76;34.70
15568;BME280;7885;42.596;23.044;2023-04-15T09:51:11;92443.88;;;16.41;36.48
15568;BME280;7885;42.596;23.044;2023-04-15T09:53:37;92412.41;;;16.08;38.20
15568;BME280;7885;42.596;23.044;2023-04-15T09:56:05;92408.88;;;16.07;37.12
15568;BME280;7885;42.596;23.044;2023-04-15T09:58:34;92435.53;;;16.32;37.22
15568;BME280;7885;42.596;23.044;2023-04-15T10:01:04;92431.13;;;16.35;37.59
15568;BME280;7885;42.596;23.044;2023-04-15T10:03:34;92418.69;;;15.96;37.70
15568;BME280;7885;42.596;23.044;2023-04-15T10:06:02;92423.84;;;15.94;37.89
15568;BME280;7885;42.596;23.044;2023-04-15T10:08:31;92439.09;;;16.20;37.97
15568;BME280;7885;42.596;23.044;2023-04-15T10:11:00;92416.22;;;16.36;36.28
15568;BME280;7885;42.596;23.044;2023-04-15T10:13:29;92397.19;;;16.41;37.12
15568;BME280;7885;42.596;23.044;2023-04-15T10:16:06;92431.28;;;16.18;36.30
15568;BME280;7885;42.596;23.044;2023-04-15T10:18:39;92417.47;;;15.97;37.27
15568;BME280;7885;42.596;23.044;2023-04-15T10:21:07;92398.66;;;17.02;34.95
15568;BME280;7885;42.596;23.044;2023-04-15T10:23:34;92421.13;;;17.75;33.56
15568;BME280;7885;42.596;23.044;2023-04-15T10:26:03;92400.03;;;17.72;33.58
15568;BME280;7885;42.596;23.044;2023-04-15T10:28:30;92406.09;;;18.46;32.72
15568;BME280;7885;42.596;23.044;2023-04-15T10:30:57;92407.06;;;19.25;33.59
15568;BME280;7885;42.596;23.044;2023-04-15T10:33:25;92411.34;;;19.35;32.51
15568;BME280;7885;42.596;23.044;2023-04-15T10:35:54;92395.47;;;17.78;33.16
15568;BME280;7885;42.596;23.044;2023-04-15T10:38:32;92408.84;;;17.66;34.68
15568;BME280;7885;42.596;23.044;2023-04-15T10:41:14;92397.19;;;18.33;33.59
15568;BME280;7885;42.596;23.044;2023-04-15T10:43:46;92405.56;;;19.06;31.26
15568;BME280;7885;42.596;23.044;2023-04-15T10:46:17;92389.84;;;19.66;30.28
15568;BME280;7885;42.596;23.044;2023-04-15T10:48:48;92381.69;;;20.14;27.98
15568;BME280;7885;42.596;23.044;2023-04-15T10:51:25;92388.06;;;19.96;29.16
15568;BME280;7885;42.596;23.044;2023-04-15T10:53:56;92396.47;;;20.91;27.37
15568;BME280;7885;42.596;23.044;2023-04-15T10:56:24;92395.00;;;21.05;29.26
15568;BME280;7885;42.596;23.044;2023-04-15T10:58:51;92403.06;;;20.46;31.07
15568;BME280;7885;42.596;23.044;2023-04-15T11:01:19;92392.63;;;20.41;29.10
15568;BME280;7885;42.596;23.044;2023-04-15T11:03:47;92402.66;;;20.86;28.77
15568;BME280;7885;42.596;23.044;2023-04-15T11:06:16;92374.44;;;20.82;27.27
15568;BME280;7885;42.596;23.044;2023-04-15T11:08:55;92386.81;;;20.39;28.11
15568;BME280;7885;42.596;23.044;2023-04-15T11:14:29;92380.41;;;19.22;29.55
15568;BME280;7885;42.596;23.044;2023-04-15T11:16:55;92388.66;;;19.49;30.22
15568;BME280;7885;42.596;23.044;2023-04-15T11:19:22;92373.25;;;19.76;28.47
15568;BME280;7885;42.596;23.044;2023-04-15T11:21:50;92385.19;;;19.91;27.86
15568;BME280;7885;42.596;23.044;2023-04-15T11:24:23;92389.44;;;20.01;28.89
15568;BME280;7885;42.596;23.044;2023-04-15T11:26:56;92381.97;;;19.92;28.38
15568;BME280;7885;42.596;23.044;2023-04-15T11:36:13;92364.44;;;21.23;27.77
15568;BME280;7885;42.596;23.044;2023-04-15T11:38:46;92368.47;;;21.81;27.13
15568;BME280;7885;42.596;23.044;2023-04-15T11:41:13;92374.94;;;21.34;27.18
15568;BME280;7885;42.596;23.044;2023-04-15T11:43:41;92370.22;;;20.87;26.96
15568;BME280;7885;42.596;23.044;2023-04-15T11:46:08;92363.28;;;20.11;26.68
15568;BME280;7885;42.596;23.044;2023-04-15T11:48:35;92360.88;;;19.71;28.94
15568;BME280;7885;42.596;23.044;2023-04-15T11:51:03;92378.41;;;19.32;27.67
15568;BME280;7885;42.596;23.044;2023-04-15T11:53:38;92364.13;;;19.51;29.21
15568;BME280;7885;42.596;23.044;2023-04-15T11:56:08;92364.88;;;20.03;28.04
15568;BME280;7885;42.596;23.044;2023-04-15T11:58:36;92367.56;;;19.01;28.97
15568;BME280;7885;42.596;23.044;2023-04-15T12:01:04;92362.00;;;18.37;28.77
15568;BME280;7885;42.596;23.044;2023-04-15T12:03:37;92340.28;;;18.66;29.67
15568;BME280;7885;42.596;23.044;2023-04-15T12:06:15;92355.75;;;18.55;29.77
15568;BME280;7885;42.596;23.044;2023-04-15T12:09:03;92365.34;;;18.41;27.12
15568;BME280;7885;42.596;23.044;2023-04-15T12:11:39;92367.53;;;18.55;28.95
15568;BME280;7885;42.596;23.044;2023-04-15T12:14:11;92387.78;;;18.71;28.30
15568;BME280;7885;42.596;23.044;2023-04-15T12:16:40;92383.81;;;18.81;29.06
15568;BME280;7885;42.596;23.044;2023-04-15T12:19:10;92372.47;;;18.79;27.47
15568;BME280;7885;42.596;23.044;2023-04-15T12:21:38;92373.59;;;18.41;26.93
15568;BME280;7885;42.596;23.044;2023-04-15T12:24:07;92372.44;;;18.51;26.76
15568;BME280;7885;42.596;23.044;2023-04-15T12:26:36;92366.47;;;18.53;27.89
15568;BME280;7885;42.596;23.044;2023-04-15T12:29:06;92379.22;;;18.69;27.40
15568;BME280;7885;42.596;23.044;2023-04-15T12:31:34;92361.44;;;19.06;26.95
15568;BME280;7885;42.596;23.044;2023-04-15T12:34:02;92366.00;;;19.27;27.99
15568;BME280;7885;42.596;23.044;2023-04-15T12:36:29;92385.47;;;19.14;26.82
15568;BME280;7885;42.596;23.044;2023-04-15T12:39:01;92397.41;;;18.93;26.59
15568;BME280;7885;42.596;23.044;2023-04-15T12:41:28;92389.94;;;18.85;26.15
15568;BME280;7885;42.596;23.044;2023-04-15T12:43:55;92372.63;;;19.02;25.69
15568;BME280;7885;42.596;23.044;2023-04-15T12:46:23;92383.94;;;18.59;28.25
15568;BME280;7885;42.596;23.044;2023-04-15T12:48:50;92364.91;;;18.34;27.06
15568;BME280;7885;42.596;23.044;2023-04-15T12:51:17;92363.09;;;18.00;30.94
15568;BME280;7885;42.596;23.044;2023-04-15T12:53:45;92365.31;;;17.74;30.54
15568;BME280;7885;42.596;23.044;2023-04-15T12:56:14;92365.53;;;17.89;29.10
15568;BME280;7885;42.596;23.044;2023-04-15T12:58:41;92374.66;;;18.35;30.33
15568;BME280;7885;42.596;23.044;2023-04-15T13:01:07;92370.63;;;18.57;27.80
15568;BME280;7885;42.596;23.044;2023-04-15T13:03:36;92372.16;;;18.86;27.38
15568;BME280;7885;42.596;23.044;2023-04-15T13:06:02;92385.31;;;19.00;26.91
15568;BME280;7885;42.596;23.044;2023-04-15T13:08:30;92366.63;;;19.13;26.78
15568;BME280;7885;42.596;23.044;2023-04-15T13:10:57;92366.16;;;18.96;28.47
15568;BME280;7885;42.596;23.044;2023-04-15T13:13:23;92374.88;;;19.40;27.88
15568;BME280;7885;42.596;23.044;2023-04-15T13:15:50;92375.16;;;19.60;29.08
15568;BME280;7885;42.596;23.044;2023-04-15T13:18:17;92365.63;;;19.71;28.20
15568;BME280;7885;42.596;23.044;2023-04-15T13:20:45;92370.16;;;19.92;25.38
15568;BME280;7885;42.596;23.044;2023-04-15T13:23:12;92361.44;;;19.84;26.46
15568;BME280;7885;42.596;23.044;2023-04-15T13:25:39;92357.31;;;20.12;27.21